Time;durP1;ratioP1;P1;durP2;ratioP2;P2;SDS_P1;SDS_P2;PMS_P1;PMS_P2;Temp;Humidity;BMP_temperature;BMP_pressure;BME280_temperature;BME280_humidity;BME280_pressure;Samples;Min_cycle;Max_cycle;Signal;HPM_P1;HPM_P2
2021/07/22 00:02:22;;;;;;;6.35;3.78;;;;;;;20.00;54.29;97182.34;5111063;28;20279;-66
2021/07/22 00:04:47;;;;;;;5.53;4.20;;;;;;;20.08;53.94;97184.41;5095688;28;20627;-66
2021/07/22 00:07:13;;;;;;;5.93;3.95;;;;;;;20.19;53.71;97179.81;5106777;28;20649;-68
2021/07/22 00:09:39;;;;;;;5.88;3.90;;;;;;;20.11;53.67;97175.88;5100098;28;20275;-65
2021/07/22 00:12:08;;;;;;;5.20;4.70;;;;;;;19.98;54.11;97178.38;5092898;28;20180;-65
2021/07/22 00:14:34;;;;;;;5.93;4.10;;;;;;;20.06;53.63;97172.47;5098964;28;20190;-65
2021/07/22 00:17:02;;;;;;;5.75;4.38;;;;;;;20.03;53.92;97170.34;5101745;28;20271;-65
2021/07/22 00:19:28;;;;;;;6.60;4.20;;;;;;;19.92;54.30;97170.41;5093654;28;20223;-65
2021/07/22 00:21:53;;;;;;;6.32;4.40;;;;;;;19.89;54.54;97170.19;5095375;28;20208;-64
2021/07/22 00:24:18;;;;;;;6.07;4.25;;;;;;;19.98;54.36;97173.84;5106665;28;20208;-65
2021/07/22 00:26:44;;;;;;;5.22;4.57;;;;;;;20.06;54.02;97167.91;5100647;28;20318;-65
2021/07/22 00:29:12;;;;;;;5.32;4.55;;;;;;;20.00;54.10;97170.91;5100597;28;20191;-64
2021/07/22 00:31:37;;;;;;;5.03;4.20;;;;;;;19.64;55.54;97167.66;5101908;28;20188;-65
2021/07/22 00:34:02;;;;;;;6.82;4.40;;;;;;;19.56;55.94;97169.03;5099532;28;20195;-64
2021/07/22 00:36:28;;;;;;;7.10;4.15;;;;;;;19.75;55.43;97169.19;5099844;28;20192;-64
2021/07/22 00:38:53;;;;;;;5.07;4.47;;;;;;;19.90;55.16;97159.25;5106975;28;20655;-64
2021/07/22 00:41:19;;;;;;;5.05;4.20;;;;;;;19.91;55.06;97162.72;5095875;28;20220;-65
2021/07/22 00:43:44;;;;;;;7.57;4.10;;;;;;;19.76;55.37;97163.63;5102619;28;20220;-64
2021/07/22 00:46:09;;;;;;;7.55;4.40;;;;;;;19.45;56.41;97162.19;5104865;28;20184;-64
2021/07/22 00:48:35;;;;;;;5.10;4.60;;;;;;;19.47;56.20;97158.19;5094435;28;20184;-65
2021/07/22 00:51:01;;;;;;;6.13;4.20;;;;;;;19.57;56.21;97159.19;5107910;28;20242;-64
2021/07/22 00:53:26;;;;;;;5.05;4.38;;;;;;;19.48;56.48;97166.97;5097848;28;20195;-64
2021/07/22 00:55:51;;;;;;;6.30;4.60;;;;;;;19.30;57.21;97160.38;5101950;28;20184;-64
2021/07/22 00:58:17;;;;;;;5.40;4.40;;;;;;;19.22;57.67;97160.94;5104374;28;20180;-66
2021/07/22 01:00:42;;;;;;;5.25;4.32;;;;;;;19.32;57.53;97155.59;5094973;28;20184;-64
2021/07/22 01:03:08;;;;;;;6.05;4.95;;;;;;;19.41;57.07;97153.94;5095339;28;20575;-64
2021/07/22 01:05:33;;;;;;;6.00;4.55;;;;;;;19.37;56.83;97147.56;5103664;28;20823;-64
2021/07/22 01:07:59;;;;;;;4.43;4.03;;;;;;;19.30;57.44;97152.38;5102772;28;20187;-64
2021/07/22 01:10:24;;;;;;;5.43;4.63;;;;;;;19.32;57.23;97152.91;5097494;28;20181;-64
2021/07/22 01:12:49;;;;;;;5.53;4.70;;;;;;;19.40;57.11;97147.03;5108514;28;20642;-65
2021/07/22 01:15:15;;;;;;;4.70;4.20;;;;;;;19.18;57.90;97145.78;5107438;28;20192;-67
2021/07/22 01:17:45;;;;;;;6.28;4.80;;;;;;;19.13;58.20;97146.63;5093213;28;20205;-65
2021/07/22 01:20:13;;;;;;;7.88;4.65;;;;;;;19.05;58.45;97142.69;5089837;28;20787;-64
2021/07/22 01:22:39;;;;;;;6.72;4.75;;;;;;;19.11;58.85;97148.78;5090005;28;20691;-65
2021/07/22 01:25:05;;;;;;;7.97;4.50;;;;;;;19.00;59.35;97147.22;5108632;28;20216;-65
2021/07/22 01:27:31;;;;;;;5.65;4.07;;;;;;;19.09;58.98;97149.03;5094922;28;20671;-64
2021/07/22 01:29:56;;;;;;;5.78;4.43;;;;;;;19.17;58.43;97145.00;5107073;28;20176;-64
2021/07/22 01:32:21;;;;;;;5.93;4.55;;;;;;;19.06;59.15;97149.56;5106802;28;20179;-65
2021/07/22 01:34:47;;;;;;;5.63;4.72;;;;;;;19.04;59.43;97149.06;5099279;28;20233;-65
2021/07/22 01:37:12;;;;;;;6.93;4.85;;;;;;;18.95;60.10;97141.88;5110298;28;20192;-65
2021/07/22 01:39:38;;;;;;;6.10;4.65;;;;;;;18.89;60.47;97141.09;5088256;28;20302;-65
2021/07/22 01:42:04;;;;;;;7.63;4.57;;;;;;;18.82;60.84;97137.97;5075467;28;20165;-65
2021/07/22 01:44:29;;;;;;;7.07;5.00;;;;;;;19.01;60.43;97140.81;5065552;28;20657;-64
2021/07/22 01:46:55;;;;;;;8.50;4.90;;;;;;;19.09;60.01;97141.06;5070806;28;20262;-65
2021/07/22 01:49:20;;;;;;;6.25;4.78;;;;;;;18.89;60.64;97137.69;5057289;28;20235;-65
2021/07/22 01:51:45;;;;;;;8.27;4.93;;;;;;;18.70;61.12;97134.81;5067591;28;20192;-65
2021/07/22 01:54:11;;;;;;;5.60;4.40;;;;;;;18.53;62.01;97139.59;5063364;28;20220;-65
2021/07/22 01:56:36;;;;;;;6.90;4.70;;;;;;;18.71;61.47;97135.59;5070612;28;20242;-65
2021/07/22 01:59:02;;;;;;;6.40;4.73;;;;;;;18.48;62.41;97127.13;5058418;28;20174;-65
2021/07/22 02:01:27;;;;;;;6.07;4.57;;;;;;;18.14;64.01;97134.06;5057075;28;20239;-64
2021/07/22 02:03:52;;;;;;;5.80;4.93;;;;;;;18.29;63.85;97126.88;5068051;28;20197;-64
2021/07/22 02:06:18;;;;;;;6.40;4.75;;;;;;;18.23;64.30;97127.94;5063306;28;20185;-66
2021/07/22 02:08:43;;;;;;;8.40;5.38;;;;;;;18.32;64.86;97130.06;5061718;28;20193;-63
2021/07/22 02:11:08;;;;;;;7.70;5.60;;;;;;;18.14;65.60;97128.75;5070643;28;20185;-65
2021/07/22 02:13:34;;;;;;;8.07;5.50;;;;;;;17.92;66.85;97122.91;5056805;28;20177;-63
2021/07/22 02:15:59;;;;;;;6.60;5.57;;;;;;;17.86;67.45;97124.75;5067555;28;20308;-64
2021/07/22 02:18:24;;;;;;;7.27;5.70;;;;;;;17.86;67.97;97114.16;5063470;28;20177;-64
2021/07/22 02:20:50;;;;;;;8.88;5.78;;;;;;;18.06;67.29;97124.75;5060860;28;20185;-64
2021/07/22 02:23:15;;;;;;;9.37;5.53;;;;;;;18.11;67.09;97121.34;5069704;28;20288;-68
2021/07/22 02:25:41;;;;;;;7.57;5.43;;;;;;;17.93;67.22;97120.00;5057334;28;20182;-64
2021/07/22 02:28:07;;;;;;;9.90;5.47;;;;;;;17.98;66.75;97120.00;5066122;28;20174;-64
2021/07/22 02:30:33;;;;;;;6.67;5.50;;;;;;;17.85;67.42;97126.63;5064926;28;20192;-65
2021/07/22 02:32:58;;;;;;;5.90;5.30;;;;;;;17.81;67.36;97122.09;5059044;28;20182;-64
2021/07/22 02:35:24;;;;;;;9.40;5.63;;;;;;;17.81;67.17;97125.56;5069777;28;20185;-64
2021/07/22 02:37:49;;;;;;;7.30;5.30;;;;;;;17.78;67.33;97125.28;5062583;28;20182;-65
2021/07/22 02:40:15;;;;;;;8.63;5.37;;;;;;;17.85;67.03;97123.97;5071944;28;20626;-67
2021/07/22 02:42:40;;;;;;;6.27;4.83;;;;;;;17.85;66.66;97126.63;5105761;28;20214;-64
2021/07/22 02:45:06;;;;;;;7.30;5.20;;;;;;;17.88;66.67;97127.97;5097969;28;20193;-65
2021/07/22 02:47:32;;;;;;;7.17;5.10;;;;;;;17.95;66.38;97127.66;5112704;28;20267;-64
2021/07/22 02:49:58;;;;;;;5.90;4.70;;;;;;;17.96;66.40;97129.25;5107405;28;20238;-64
2021/07/22 02:52:24;;;;;;;7.10;5.40;;;;;;;17.80;67.34;97129.25;5101495;28;20177;-65
2021/07/22 02:54:49;;;;;;;8.70;5.07;;;;;;;17.74;67.62;97125.00;5107674;28;20191;-64
2021/07/22 02:57:14;;;;;;;8.93;5.10;;;;;;;17.72;67.40;97129.00;5096770;28;20198;-68
2021/07/22 02:59:40;;;;;;;6.23;5.10;;;;;;;17.71;67.21;97122.91;5109942;28;20184;-64
2021/07/22 03:02:05;;;;;;;6.43;5.13;;;;;;;17.69;67.41;97125.00;5095022;28;20177;-64
2021/07/22 03:04:31;;;;;;;5.80;4.80;;;;;;;17.77;67.36;97131.66;5094579;28;20688;-64
2021/07/22 03:06:56;;;;;;;7.33;5.00;;;;;;;17.75;67.39;97131.13;5107486;28;20284;-65
2021/07/22 03:09:22;;;;;;;8.10;5.23;;;;;;;17.53;68.54;97126.00;5092284;28;20242;-64
2021/07/22 03:11:47;;;;;;;10.40;5.50;;;;;;;17.54;68.61;97135.56;5109315;28;20600;-64
2021/07/22 03:14:13;;;;;;;6.00;4.97;;;;;;;17.62;68.20;97139.56;5101746;28;20180;-64
2021/07/22 03:16:38;;;;;;;8.97;5.53;;;;;;;17.72;67.81;97142.25;5099904;28;20280;-64
2021/07/22 03:19:03;;;;;;;8.40;5.23;;;;;;;17.65;68.21;97150.47;5097351;28;20185;-64
2021/07/22 03:21:29;;;;;;;7.20;5.20;;;;;;;17.62;68.63;97155.47;5094189;28;20192;-65
2021/07/22 03:23:55;;;;;;;8.10;5.50;;;;;;;17.40;69.63;97153.00;5092068;28;20189;-65
2021/07/22 03:26:20;;;;;;;8.33;6.17;;;;;;;17.43;70.56;97152.50;5098809;28;20589;-65
2021/07/22 03:28:45;;;;;;;10.17;6.37;;;;;;;17.37;71.41;97149.03;5093829;28;20238;-64
2021/07/22 03:31:11;;;;;;;10.63;6.70;;;;;;;17.44;71.36;97146.16;5110286;28;20179;-65
2021/07/22 03:33:36;;;;;;;7.23;6.13;;;;;;;17.12;72.51;97145.47;5095785;28;20195;-64
2021/07/22 03:36:03;;;;;;;10.03;6.10;;;;;;;17.12;72.82;97153.44;5095042;28;20567;-64
2021/07/22 03:38:28;;;;;;;8.67;6.13;;;;;;;17.22;72.45;97145.53;5101647;28;20195;-64
2021/07/22 03:40:54;;;;;;;10.90;6.47;;;;;;;17.18;72.74;97145.25;5107738;28;20220;-64
2021/07/22 03:43:19;;;;;;;8.50;6.17;;;;;;;17.26;72.67;97136.81;5093970;28;20623;-65
2021/07/22 03:45:45;;;;;;;11.77;6.30;;;;;;;17.15;72.84;97137.03;5105817;28;20309;-64
2021/07/22 03:48:12;;;;;;;8.40;5.93;;;;;;;17.20;72.78;97137.84;5103868;28;20528;-64
2021/07/22 03:50:40;;;;;;;8.67;6.87;;;;;;;17.38;71.85;97141.88;5093603;28;20172;-64
2021/07/22 03:53:07;;;;;;;8.37;6.00;;;;;;;17.35;71.89;97142.38;5101660;28;20188;-63
2021/07/22 03:55:33;;;;;;;8.80;6.27;;;;;;;17.38;71.75;97149.84;5097144;28;20180;-63
2021/07/22 03:57:58;;;;;;;9.07;6.57;;;;;;;17.18;72.88;97149.75;5104387;28;20188;-65
2021/07/22 04:00:24;;;;;;;9.17;6.67;;;;;;;17.12;73.46;97148.13;5092294;28;20645;-64
2021/07/22 04:03:06;;;;;;;8.00;6.17;;;;;;;17.14;73.36;97143.38;5094513;28;20337;-64
2021/07/22 04:05:32;;;;;;;7.90;6.00;;;;;;;16.96;74.13;97141.97;5104191;28;20514;-64
2021/07/22 04:07:58;;;;;;;12.70;6.47;;;;;;;17.30;73.17;97143.19;5103340;28;20187;-64
2021/07/22 04:10:27;;;;;;;8.33;6.60;;;;;;;17.42;72.60;97137.66;5097675;28;20661;-65
2021/07/22 04:13:00;;;;;;;9.17;7.07;;;;;;;17.26;73.53;97143.97;5092635;28;20192;-64
2021/07/22 04:15:27;;;;;;;9.77;7.27;;;;;;;17.22;74.29;97142.91;5098540;28;20353;-65
2021/07/22 04:17:54;;;;;;;10.57;6.77;;;;;;;17.28;74.39;97147.94;5102772;28;20180;-66
2021/07/22 04:20:20;;;;;;;8.07;6.97;;;;;;;17.48;73.41;97135.81;5093358;28;20180;-65
2021/07/22 04:22:45;;;;;;;9.43;7.30;;;;;;;17.74;72.33;97148.06;5110701;28;20200;-65
2021/07/22 04:25:12;;;;;;;9.70;6.93;;;;;;;17.39;73.88;97148.75;5095679;28;20183;-64
2021/07/22 04:27:37;;;;;;;9.23;7.20;;;;;;;17.53;73.26;97147.22;5104747;28;20181;-64
2021/07/22 04:30:03;;;;;;;10.93;8.00;;;;;;;17.49;73.75;97145.34;5098264;28;20543;-64
2021/07/22 04:32:28;;;;;;;12.80;8.97;;;;;;;17.57;73.53;97147.47;5105393;28;20215;-65
2021/07/22 04:34:54;;;;;;;11.13;7.83;;;;;;;17.77;72.59;97148.38;5094689;28;20279;-64
2021/07/22 04:37:19;;;;;;;15.27;8.00;;;;;;;17.81;72.32;97149.44;5106203;28;20708;-64
2021/07/22 04:39:45;;;;;;;13.93;8.47;;;;;;;17.93;71.46;97151.81;5095094;28;20232;-64
2021/07/22 04:42:10;;;;;;;19.63;9.13;;;;;;;17.99;71.47;97149.97;5111825;28;20637;-64
2021/07/22 04:44:36;;;;;;;9.57;7.97;;;;;;;17.96;71.61;97158.44;5102193;28;20586;-65
2021/07/22 04:47:01;;;;;;;12.63;7.80;;;;;;;18.03;71.49;97148.38;5104113;28;20184;-64
2021/07/22 04:49:26;;;;;;;13.02;8.90;;;;;;;18.17;70.78;97152.06;5095363;28;20189;-64
2021/07/22 04:51:52;;;;;;;12.10;8.10;;;;;;;18.09;71.04;97160.59;5108463;28;20636;-64
2021/07/22 04:54:18;;;;;;;11.30;8.20;;;;;;;17.96;71.70;97158.44;5092966;28;20193;-66
2021/07/22 04:56:44;;;;;;;10.77;7.43;;;;;;;18.28;70.68;97157.13;5103090;28;20177;-64
2021/07/22 04:59:10;;;;;;;11.03;7.80;;;;;;;18.45;70.04;97158.69;5097592;28;20217;-64
2021/07/22 05:01:36;;;;;;;17.17;7.80;;;;;;;18.75;68.67;97163.22;5099760;28;20189;-63
2021/07/22 05:04:01;;;;;;;9.40;7.05;;;;;;;18.98;67.89;97149.34;5098555;28;20204;-64
2021/07/22 05:06:26;;;;;;;10.40;7.38;;;;;;;19.17;67.05;97160.94;5107059;28;20202;-64
2021/07/22 05:08:53;;;;;;;9.93;7.10;;;;;;;19.03;67.63;97159.94;5093325;28;20187;-64
2021/07/22 05:11:18;;;;;;;9.57;6.40;;;;;;;18.65;68.49;97158.72;5097480;28;20215;-64
2021/07/22 05:13:44;;;;;;;11.35;7.72;;;;;;;18.93;68.11;97155.47;5101735;28;20212;-64
2021/07/22 05:16:09;;;;;;;13.98;7.78;;;;;;;19.08;67.45;97157.25;5105163;28;20203;-64
2021/07/22 05:18:35;;;;;;;8.45;6.70;;;;;;;18.78;69.01;97158.13;5107638;28;20559;-64
2021/07/22 05:21:05;;;;;;;9.80;6.82;;;;;;;19.02;67.94;97161.81;5090201;28;20184;-64
2021/07/22 05:23:31;;;;;;;10.18;7.88;;;;;;;19.02;68.12;97151.16;5099479;28;20207;-64
2021/07/22 05:25:57;;;;;;;9.18;7.65;;;;;;;19.00;68.50;97161.25;5098825;28;20668;-64
2021/07/22 05:28:22;;;;;;;10.82;7.63;;;;;;;18.98;68.61;97159.97;5106527;28;20188;-65
2021/07/22 05:30:47;;;;;;;12.23;7.80;;;;;;;19.14;68.06;97163.34;5090197;28;20184;-66
2021/07/22 05:33:13;;;;;;;8.77;7.13;;;;;;;19.07;67.84;97164.44;5097432;28;20180;-66
2021/07/22 05:35:38;;;;;;;11.65;8.68;;;;;;;19.27;67.61;97168.91;5095216;28;20184;-65
2021/07/22 05:38:03;;;;;;;12.70;7.80;;;;;;;19.28;67.50;97170.47;5092619;28;20189;-65
2021/07/22 05:40:29;;;;;;;10.30;7.85;;;;;;;19.42;67.12;97168.81;5105101;28;20615;-65
2021/07/22 05:42:55;;;;;;;12.90;8.52;;;;;;;19.57;66.32;97177.81;5093512;28;20200;-64
2021/07/22 05:45:20;;;;;;;10.90;8.43;;;;;;;19.71;65.55;97178.81;5094886;28;20183;-65
2021/07/22 05:47:45;;;;;;;10.35;8.00;;;;;;;19.69;66.09;97168.44;5103644;28;20176;-64
2021/07/22 05:50:11;;;;;;;16.15;8.13;;;;;;;19.76;65.56;97174.25;5100377;28;20532;-64
2021/07/22 05:52:36;;;;;;;12.10;8.40;;;;;;;19.88;65.08;97174.72;5092228;28;20258;-64
2021/07/22 05:55:03;;;;;;;11.40;7.45;;;;;;;19.95;64.88;97177.03;5110517;28;20654;-66
2021/07/22 05:57:28;;;;;;;10.35;7.57;;;;;;;20.11;64.57;97170.56;5104660;28;20184;-65
2021/07/22 05:59:54;;;;;;;13.85;7.63;;;;;;;20.26;64.08;97169.66;5101100;28;20279;-65
2021/07/22 06:02:19;;;;;;;14.65;8.25;;;;;;;20.53;63.91;97171.84;5099413;28;20263;-65
2021/07/22 06:04:44;;;;;;;15.15;8.05;;;;;;;20.94;62.35;97174.91;5099498;28;20181;-65
2021/07/22 06:07:10;;;;;;;9.02;6.70;;;;;;;21.00;62.14;97169.25;5093217;28;20196;-64
2021/07/22 06:09:35;;;;;;;13.02;8.23;;;;;;;21.07;61.91;97180.31;5106812;28;20781;-65
2021/07/22 06:12:01;;;;;;;11.05;7.32;;;;;;;21.24;61.19;97173.78;5096539;28;20183;-65
2021/07/22 06:14:26;;;;;;;9.43;6.93;;;;;;;21.26;61.00;97171.63;5108790;28;20188;-65
2021/07/22 06:16:51;;;;;;;9.10;6.57;;;;;;;21.67;59.42;97175.38;5102147;28;20176;-65
2021/07/22 06:19:17;;;;;;;9.82;6.68;;;;;;;22.05;58.16;97180.72;5111017;28;20640;-65
2021/07/22 06:21:42;;;;;;;8.70;6.47;;;;;;;22.18;57.61;97183.44;5101628;28;22119;-63
2021/07/22 06:24:08;;;;;;;10.77;6.30;;;;;;;22.34;57.35;97170.66;5101595;28;20208;-62
2021/07/22 06:26:34;;;;;;;8.10;6.40;;;;;;;22.40;56.47;97177.50;5101088;28;20322;-63
2021/07/22 06:29:01;;;;;;;7.10;5.78;;;;;;;22.47;56.20;97183.25;5101036;28;20196;-62
2021/07/22 06:31:26;;;;;;;8.63;6.47;;;;;;;22.94;55.67;97176.03;5107651;28;20188;-63
2021/07/22 06:33:51;;;;;;;11.57;6.60;;;;;;;23.31;54.99;97169.69;5103554;28;20191;-63
2021/07/22 06:36:17;;;;;;;8.65;5.95;;;;;;;23.35;54.06;97178.72;5101584;28;20192;-67
2021/07/22 06:38:42;;;;;;;6.40;5.80;;;;;;;23.21;54.08;97182.19;5096204;28;20211;-63
2021/07/22 06:41:10;;;;;;;9.90;5.95;;;;;;;23.37;54.26;97182.69;5095940;28;20621;-62
2021/07/22 06:43:35;;;;;;;8.57;6.07;;;;;;;23.12;55.63;97173.28;5105817;28;20201;-63
2021/07/22 06:46:01;;;;;;;12.20;6.03;;;;;;;22.83;55.62;97182.66;5097818;28;20187;-62
2021/07/22 06:48:26;;;;;;;8.13;5.93;;;;;;;22.97;56.85;97181.59;5110740;28;20196;-63
2021/07/22 06:50:52;;;;;;;10.05;6.53;;;;;;;23.26;54.82;97181.28;5113781;28;20234;-63
2021/07/22 06:53:18;;;;;;;12.73;6.50;;;;;;;23.01;54.32;97179.91;5109713;28;20242;-67
2021/07/22 06:55:43;;;;;;;6.55;5.45;;;;;;;22.95;55.78;97178.44;5114012;28;20195;-63
2021/07/22 06:58:09;;;;;;;8.45;6.07;;;;;;;22.74;56.46;97178.00;5097102;28;20184;-63
2021/07/22 07:00:36;;;;;;;8.77;6.28;;;;;;;23.20;54.88;97179.81;5104507;28;20223;-63
2021/07/22 07:03:06;;;;;;;8.00;5.70;;;;;;;23.49;53.57;97176.84;5092556;28;20208;-63
2021/07/22 07:05:35;;;;;;;11.48;6.28;;;;;;;23.54;53.97;97176.75;5098303;28;20551;-64
2021/07/22 07:08:01;;;;;;;9.48;6.50;;;;;;;23.59;54.44;97179.31;5101353;28;20271;-64
2021/07/22 07:10:27;;;;;;;9.48;6.00;;;;;;;23.81;53.40;97178.56;5094898;28;20199;-64
2021/07/22 07:12:53;;;;;;;9.82;5.80;;;;;;;23.33;53.89;97187.03;5104486;28;20196;-63
2021/07/22 07:15:19;;;;;;;8.68;6.07;;;;;;;23.20;54.48;97183.28;5092943;28;20625;-67
2021/07/22 07:17:45;;;;;;;11.55;6.38;;;;;;;22.79;55.03;97185.16;5093545;28;20181;-64
2021/07/22 07:20:11;;;;;;;9.30;6.80;;;;;;;22.65;55.84;97171.72;5095508;28;20688;-64
2021/07/22 07:22:36;;;;;;;8.50;6.22;;;;;;;22.87;55.78;97179.09;5107464;28;20180;-62
2021/07/22 07:25:02;;;;;;;9.63;5.68;;;;;;;22.41;57.36;97173.72;5091168;28;20233;-62
2021/07/22 07:27:27;;;;;;;10.23;6.22;;;;;;;22.30;57.34;97178.44;5093678;28;21497;-63
2021/07/22 07:29:53;;;;;;;10.73;6.55;;;;;;;22.80;56.53;97178.69;5094541;28;20651;-64
2021/07/22 07:32:18;;;;;;;9.98;6.18;;;;;;;23.30;55.33;97176.94;5078643;28;20181;-63
2021/07/22 07:34:43;;;;;;;8.15;5.85;;;;;;;22.72;56.31;97168.69;5097482;28;20192;-62
2021/07/22 07:37:09;;;;;;;7.70;5.90;;;;;;;23.08;54.35;97168.81;5099006;28;20188;-64
2021/07/22 07:39:34;;;;;;;8.15;6.28;;;;;;;22.40;56.33;97178.28;5090544;28;20883;-63
2021/07/22 07:42:01;;;;;;;7.80;5.68;;;;;;;22.97;55.04;97176.22;5085181;28;20192;-62
2021/07/22 07:44:27;;;;;;;7.45;5.55;;;;;;;23.44;55.15;97166.22;5100634;28;20268;-63
2021/07/22 07:46:53;;;;;;;8.57;6.28;;;;;;;22.89;54.35;97170.78;5105682;28;20195;-63
2021/07/22 07:49:18;;;;;;;7.80;6.22;;;;;;;22.96;53.75;97169.28;5097832;28;20199;-67
2021/07/22 08:00:41;;;;;;;7.05;6.20;;;;;;;22.93;53.89;97166.44;5345969;22;20647;-62
2021/07/22 08:03:16;;;;;;;12.13;5.72;;;;;;;22.25;55.74;97162.50;5052199;28;20202;-62
2021/07/22 08:05:42;;;;;;;8.75;6.00;;;;;;;21.86;56.18;97159.34;5052304;28;20540;-64
2021/07/22 08:08:07;;;;;;;7.93;6.10;;;;;;;22.73;55.37;97157.72;5049974;28;20193;-63
2021/07/22 08:10:32;;;;;;;7.65;6.05;;;;;;;22.78;54.80;97164.84;5051805;28;20205;-63
2021/07/22 08:12:58;;;;;;;8.60;5.88;;;;;;;22.38;54.38;97166.31;5051533;28;20190;-63
2021/07/22 08:15:23;;;;;;;7.70;5.85;;;;;;;22.27;56.53;97164.88;5051834;28;20239;-64
2021/07/22 08:17:48;;;;;;;8.35;5.97;;;;;;;22.33;55.43;97163.72;5050536;28;20197;-63
2021/07/22 08:20:14;;;;;;;6.38;5.57;;;;;;;22.21;53.73;97163.38;5051334;28;20182;-63
2021/07/22 08:22:39;;;;;;;6.78;5.47;;;;;;;22.62;53.60;97158.16;5042276;28;20209;-63
2021/07/22 08:25:06;;;;;;;11.13;6.03;;;;;;;22.73;54.13;97160.38;5031503;28;20349;-63
2021/07/22 08:27:32;;;;;;;8.02;6.00;;;;;;;22.41;54.18;97155.03;5047382;28;20212;-63
2021/07/22 08:29:58;;;;;;;7.95;5.35;;;;;;;22.91;52.88;97156.03;5050492;28;20197;-62
2021/07/22 08:32:25;;;;;;;8.43;5.72;;;;;;;23.15;52.67;97148.59;5051012;28;20182;-63
2021/07/22 08:45:34;;;;;;;11.60;6.32;;;;;;;23.16;53.19;97158.22;5354319;22;20232;-65
2021/07/22 08:47:59;;;;;;;8.82;6.47;;;;;;;23.76;51.67;97158.06;5105816;28;20184;-65
2021/07/22 08:50:25;;;;;;;12.60;6.60;;;;;;;23.59;52.45;97157.88;5104985;28;20189;-64
2021/07/22 08:52:51;;;;;;;10.50;6.78;;;;;;;23.17;53.73;97162.50;5095858;28;20175;-64
2021/07/22 08:55:17;;;;;;;11.60;6.65;;;;;;;23.14;53.64;97159.59;5107226;28;20266;-65
2021/07/22 08:57:43;;;;;;;9.60;6.40;;;;;;;23.19;53.82;97154.94;5107388;28;20187;-66
2021/07/22 09:00:10;;;;;;;8.55;6.03;;;;;;;23.00;53.08;97162.28;5101770;28;20187;-64
2021/07/22 09:02:35;;;;;;;7.35;5.85;;;;;;;23.35;52.83;97154.66;5100118;28;20268;-65
2021/07/22 09:05:03;;;;;;;7.25;5.78;;;;;;;23.49;52.83;97160.78;5104963;28;20263;-63
2021/07/22 09:07:30;;;;;;;10.32;6.20;;;;;;;23.47;53.29;97149.59;5107204;28;20193;-64
2021/07/22 09:10:08;;;;;;;9.38;5.68;;;;;;;23.48;52.89;97157.31;5107539;28;20179;-64
2021/07/22 09:12:43;;;;;;;10.65;6.22;;;;;;;23.30;52.57;97152.84;5103092;28;20236;-64
2021/07/22 09:15:11;;;;;;;10.23;6.57;;;;;;;23.37;51.44;97161.28;5095851;28;20266;-64
2021/07/22 09:17:37;;;;;;;8.98;5.50;;;;;;;23.11;52.88;97158.31;5101446;28;20188;-64
2021/07/22 09:20:03;;;;;;;6.53;5.20;;;;;;;23.36;52.93;97156.22;5100973;28;20227;-64
2021/07/22 09:22:34;;;;;;;6.00;5.07;;;;;;;23.28;51.79;97156.94;5096122;28;20699;-63
2021/07/22 09:25:00;;;;;;;7.03;5.22;;;;;;;23.68;49.75;97158.78;5107233;28;20194;-63
2021/07/22 09:27:31;;;;;;;8.30;5.30;;;;;;;23.84;49.71;97159.22;5092241;28;20181;-63
2021/07/22 09:29:57;;;;;;;9.25;4.78;;;;;;;24.36;48.73;97160.41;5091334;28;20189;-64
2021/07/22 09:32:33;;;;;;;7.40;5.32;;;;;;;23.89;49.91;97159.91;5092524;28;20177;-64
2021/07/22 09:35:04;;;;;;;5.68;5.00;;;;;;;23.84;50.19;97159.22;5094359;28;20222;-64
2021/07/22 09:37:29;;;;;;;7.43;4.97;;;;;;;24.20;50.15;97156.53;5105334;28;20221;-61
2021/07/22 09:39:55;;;;;;;5.38;4.82;;;;;;;23.90;49.73;97156.13;5098598;28;20226;-64
2021/07/22 09:42:20;;;;;;;5.65;4.90;;;;;;;23.87;49.89;97156.72;5100895;28;20187;-64
2021/07/22 09:44:46;;;;;;;6.35;4.90;;;;;;;23.85;48.70;97156.22;5095453;28;20222;-64
2021/07/22 09:47:11;;;;;;;6.32;4.57;;;;;;;23.89;47.88;97149.19;5102069;28;20228;-64
2021/07/22 09:49:38;;;;;;;5.30;4.55;;;;;;;24.17;45.61;97151.75;5105389;28;20711;-65
2021/07/22 09:52:22;;;;;;;4.80;4.30;;;;;;;23.93;45.47;97144.00;5103481;28;20180;-66
2021/07/22 09:54:47;;;;;;;7.35;4.47;;;;;;;23.86;45.26;97149.78;5100082;28;20172;-66
2021/07/22 09:57:20;;;;;;;5.13;4.55;;;;;;;23.70;46.21;97145.06;5110760;28;20191;-63
2021/07/22 09:59:51;;;;;;;5.07;3.90;;;;;;;24.17;44.14;97141.84;5092873;28;20196;-64
2021/07/22 10:02:18;;;;;;;4.55;4.05;;;;;;;24.41;43.89;97144.22;5101585;28;20517;-65
2021/07/22 10:04:52;;;;;;;5.90;4.20;;;;;;;24.41;43.56;97136.97;5107666;28;20204;-64
2021/07/22 10:07:22;;;;;;;5.05;4.55;;;;;;;24.20;44.39;97137.78;5106392;28;20184;-64
2021/07/22 10:09:53;;;;;;;5.80;4.95;;;;;;;23.89;46.26;97135.81;5102522;28;20606;-67
2021/07/22 10:12:22;;;;;;;5.20;4.70;;;;;;;24.08;45.79;97135.63;5095801;28;20246;-63
2021/07/22 10:14:54;;;;;;;6.35;4.55;;;;;;;24.52;44.69;97139.41;5104065;28;20181;-67
2021/07/22 10:17:24;;;;;;;4.88;3.95;;;;;;;24.64;45.33;97129.69;5094114;28;20199;-63
2021/07/22 10:19:50;;;;;;;6.07;4.80;;;;;;;24.19;46.63;97126.25;5104320;28;20194;-67
2021/07/22 10:22:16;;;;;;;5.15;4.57;;;;;;;24.52;45.68;97118.72;5113063;28;20184;-64
2021/07/22 10:24:42;;;;;;;4.93;4.50;;;;;;;24.58;45.61;97124.75;5112802;27;20560;-63
2021/07/22 10:27:08;;;;;;;4.93;4.18;;;;;;;24.69;45.46;97112.66;5091786;28;20196;-64
2021/07/22 10:29:34;;;;;;;7.05;4.75;;;;;;;24.78;45.54;97111.63;5104672;28;20203;-63
2021/07/22 10:32:01;;;;;;;5.18;4.68;;;;;;;24.99;45.48;97106.50;5092501;28;20670;-63
2021/07/22 10:34:27;;;;;;;5.10;4.10;;;;;;;24.83;45.95;97116.84;5094433;28;20188;-63
2021/07/22 10:36:53;;;;;;;5.07;4.45;;;;;;;24.68;47.37;97114.56;5093553;28;20605;-62
2021/07/22 10:39:56;;;;;;;5.95;4.30;;;;;;;24.39;45.82;97116.94;5094302;28;20177;-61
2021/07/22 10:42:43;;;;;;;6.85;4.70;;;;;;;23.98;47.03;97109.09;5102334;28;20516;-64
2021/07/22 10:45:17;;;;;;;7.78;4.97;;;;;;;24.00;46.26;97106.91;5081125;28;20180;-63
2021/07/22 10:48:03;;;;;;;5.63;4.47;;;;;;;24.39;46.67;97106.22;5095005;28;20180;-64
2021/07/22 10:50:38;;;;;;;9.77;5.00;;;;;;;24.65;46.17;97100.97;5109187;28;20644;-64
2021/07/22 10:53:04;;;;;;;5.60;4.50;;;;;;;24.55;45.22;97098.56;5106674;28;20183;-64
2021/07/22 10:55:42;;;;;;;6.25;4.95;;;;;;;24.36;46.17;97102.25;5097613;28;20196;-64
2021/07/22 10:58:29;;;;;;;5.78;5.05;;;;;;;24.24;45.75;97102.03;5105471;28;20172;-63
2021/07/22 11:00:55;;;;;;;7.13;5.20;;;;;;;24.48;46.00;97093.66;5093832;28;20252;-63
2021/07/22 11:03:35;;;;;;;7.25;5.10;;;;;;;24.60;45.44;97093.88;5103501;28;20649;-64
2021/07/22 11:06:04;;;;;;;6.97;5.40;;;;;;;24.68;45.75;97092.34;5099781;28;20262;-63
2021/07/22 11:08:31;;;;;;;6.03;4.60;;;;;;;24.54;46.17;97094.31;5097115;28;20212;-63
2021/07/22 11:11:08;;;;;;;7.25;5.50;;;;;;;25.04;45.52;97089.47;5098762;28;20633;-65
2021/07/22 11:13:36;;;;;;;5.70;4.88;;;;;;;24.95;45.51;97089.47;5104154;28;20164;-61
2021/07/22 11:16:09;;;;;;;5.78;5.05;;;;;;;24.53;46.75;97087.34;5106141;28;20284;-61
2021/07/22 11:18:43;;;;;;;7.53;4.93;;;;;;;24.70;45.76;97090.13;5096232;28;20192;-63
2021/07/22 11:21:10;;;;;;;8.07;5.40;;;;;;;24.84;46.00;97086.25;5094677;28;20671;-64
2021/07/22 11:23:36;;;;;;;6.50;5.00;;;;;;;24.76;45.57;97078.94;5096267;28;20207;-61
2021/07/22 11:26:02;;;;;;;6.68;5.85;;;;;;;24.44;47.31;97076.59;5102990;28;20184;-62
2021/07/22 11:28:28;;;;;;;6.22;5.15;;;;;;;24.80;45.92;97081.78;5101196;28;20531;-62
2021/07/22 11:31:06;;;;;;;7.53;5.20;;;;;;;24.88;45.31;97078.38;5092929;28;20180;-62
2021/07/22 11:33:34;;;;;;;8.57;5.13;;;;;;;25.26;45.29;97073.25;5108320;28;20196;-62
2021/07/22 11:36:02;;;;;;;6.78;4.82;;;;;;;25.22;44.63;97078.47;5106829;28;20229;-62
2021/07/22 11:38:28;;;;;;;9.52;4.93;;;;;;;25.26;44.38;97074.06;5095368;28;20638;-62
2021/07/22 11:40:55;;;;;;;7.50;5.30;;;;;;;24.95;45.25;97070.69;5096016;28;20176;-62
2021/07/22 11:43:43;;;;;;;6.30;5.70;;;;;;;25.09;44.61;97075.91;5097832;28;20214;-62
2021/07/22 11:46:13;;;;;;;9.63;5.72;;;;;;;25.22;45.24;97075.78;5110071;28;20208;-62
2021/07/22 11:48:40;;;;;;;8.20;5.88;;;;;;;25.04;44.81;97068.00;5101278;28;20208;-62
2021/07/22 11:51:09;;;;;;;7.10;5.53;;;;;;;25.08;44.90;97061.69;5106134;28;20191;-62